createdAt,value
2023-03-02T00:01:27.558Z,3.60
2023-03-02T00:03:56.680Z,3.50
2023-03-02T00:06:23.958Z,3.50
2023-03-02T00:08:51.568Z,3.40
2023-03-02T00:11:21.698Z,3.40
2023-03-02T00:13:50.323Z,3.40
2023-03-02T00:16:17.548Z,3.30
2023-03-02T00:18:44.820Z,3.30
2023-03-02T00:21:11.919Z,3.20
2023-03-02T00:23:39.124Z,3.20
2023-03-02T00:26:07.989Z,3.20
2023-03-02T00:28:35.240Z,3.20
2023-03-02T00:31:04.899Z,3.10
2023-03-02T00:33:33.088Z,3.10
2023-03-02T00:36:00.593Z,3.10
2023-03-02T00:38:28.781Z,3.00
2023-03-02T00:40:56.612Z,3.00
2023-03-02T00:43:28.222Z,3.00
2023-03-02T00:45:55.553Z,3.00
2023-03-02T00:48:25.418Z,3.10
2023-03-02T00:50:52.552Z,3.20
2023-03-02T00:53:20.014Z,3.20
2023-03-02T00:55:54.719Z,3.30
2023-03-02T00:58:22.965Z,3.30
2023-03-02T01:00:51.399Z,3.30
2023-03-02T01:03:22.467Z,3.30
2023-03-02T01:05:49.952Z,3.40
2023-03-02T01:08:17.055Z,3.30
2023-03-02T01:10:44.203Z,3.30
2023-03-02T01:13:11.658Z,3.30
2023-03-02T01:15:39.894Z,3.40
2023-03-02T01:18:07.264Z,3.40
2023-03-02T01:20:34.617Z,3.30
2023-03-02T01:23:01.688Z,3.40
2023-03-02T01:25:29.402Z,3.40
2023-03-02T01:27:56.612Z,3.40
2023-03-02T01:30:26.807Z,3.40
2023-03-02T01:32:53.986Z,3.50
2023-03-02T01:35:21.902Z,3.50
2023-03-02T01:37:49.097Z,3.50
2023-03-02T01:40:21.789Z,3.50
2023-03-02T01:42:52.519Z,3.50
2023-03-02T01:45:40.111Z,3.50
2023-03-02T01:48:09.750Z,3.50
2023-03-02T01:50:37.044Z,3.50
2023-03-02T01:53:05.418Z,3.60
2023-03-02T01:55:33.150Z,3.50
2023-03-02T01:58:00.301Z,3.50
2023-03-02T02:00:29.332Z,3.50
2023-03-02T02:03:08.840Z,3.50
2023-03-02T02:05:38.265Z,3.50
2023-03-02T02:08:06.209Z,3.40
2023-03-02T02:10:34.281Z,3.30
2023-03-02T02:13:02.001Z,3.30
2023-03-02T02:15:29.330Z,3.30
2023-03-02T02:17:56.466Z,3.40
2023-03-02T02:20:42.679Z,3.40
2023-03-02T02:23:26.997Z,3.30
2023-03-02T02:25:57.087Z,3.30
2023-03-02T02:28:36.386Z,3.30
2023-03-02T02:31:17.090Z,3.20
2023-03-02T02:33:46.194Z,3.10
2023-03-02T02:36:23.120Z,3.10
2023-03-02T02:38:54.819Z,3.00
2023-03-02T02:41:25.265Z,2.90
2023-03-02T02:43:53.031Z,2.80
2023-03-02T02:46:20.656Z,2.70
2023-03-02T02:48:47.942Z,2.70
2023-03-02T02:51:26.931Z,2.70
2023-03-02T02:54:00.119Z,2.60
2023-03-02T02:56:37.630Z,2.50
2023-03-02T02:59:24.281Z,2.50
2023-03-02T03:01:52.089Z,2.40
2023-03-02T03:04:22.493Z,2.40
2023-03-02T03:06:55.012Z,2.30
2023-03-02T03:09:22.617Z,2.30
2023-03-02T03:12:13.067Z,2.20
2023-03-02T03:14:41.329Z,2.20
2023-03-02T03:17:13.117Z,2.10
2023-03-02T03:19:53.634Z,2.10
2023-03-02T03:22:21.668Z,2.00
2023-03-02T03:24:50.996Z,2.00
2023-03-02T03:27:20.838Z,2.00
2023-03-02T03:29:48.533Z,1.90
2023-03-02T03:32:18.107Z,1.90
2023-03-02T03:34:45.599Z,1.90
2023-03-02T03:37:28.763Z,1.90
2023-03-02T03:39:56.049Z,1.80
2023-03-02T03:42:24.271Z,1.80
2023-03-02T03:44:52.857Z,1.80
2023-03-02T03:47:21.658Z,1.80
2023-03-02T03:49:50.798Z,1.70
2023-03-02T03:52:18.145Z,1.70
2023-03-02T03:54:45.428Z,1.70
2023-03-02T03:57:12.702Z,1.60
2023-03-02T03:59:40.429Z,1.60
2023-03-02T04:02:08.436Z,1.60
2023-03-02T04:04:39.909Z,1.60
2023-03-02T04:07:12.281Z,1.60
2023-03-02T04:09:39.494Z,1.60
2023-03-02T04:12:09.037Z,1.50
2023-03-02T04:14:36.860Z,1.50
2023-03-02T04:17:05.611Z,1.50
2023-03-02T04:19:35.698Z,1.40
2023-03-02T04:22:04.387Z,1.40
2023-03-02T04:24:33.173Z,1.40
2023-03-02T04:27:04.025Z,1.40
2023-03-02T04:29:36.581Z,1.40
2023-03-02T04:32:06.231Z,1.40
2023-03-02T04:34:35.306Z,1.40
2023-03-02T04:37:02.590Z,1.30
2023-03-02T04:39:29.685Z,1.30
2023-03-02T04:41:57.227Z,1.30
2023-03-02T04:44:24.286Z,1.30
2023-03-02T04:46:54.448Z,1.20
2023-03-02T04:49:21.802Z,1.30
2023-03-02T04:51:51.896Z,1.20
2023-03-02T04:54:24.378Z,1.20
2023-03-02T04:56:52.084Z,1.20
2023-03-02T04:59:22.533Z,1.20
2023-03-02T05:01:52.781Z,1.20
2023-03-02T05:04:19.988Z,1.10
2023-03-02T05:06:47.110Z,1.10
2023-03-02T05:09:14.391Z,1.10
2023-03-02T05:11:41.410Z,1.00
2023-03-02T05:14:09.794Z,1.00
2023-03-02T05:16:37.872Z,1.00
2023-03-02T05:19:05.979Z,1.00
2023-03-02T05:21:33.254Z,1.00
2023-03-02T05:24:00.651Z,1.00
2023-03-02T05:26:27.781Z,1.00
2023-03-02T05:28:55.132Z,1.00
2023-03-02T05:31:32.084Z,1.00
2023-03-02T05:33:59.423Z,1.00
2023-03-02T05:36:26.620Z,0.90
2023-03-02T05:38:53.797Z,0.90
2023-03-02T05:41:21.430Z,0.90
2023-03-02T05:43:48.602Z,0.90
2023-03-02T05:46:17.547Z,0.90
2023-03-02T05:48:45.501Z,0.80
2023-03-02T05:51:12.612Z,0.80
2023-03-02T05:53:40.312Z,0.80
2023-03-02T05:56:07.877Z,0.80
2023-03-02T05:58:35.142Z,0.70
2023-03-02T06:01:02.470Z,0.70
2023-03-02T06:03:29.857Z,0.70
2023-03-02T06:05:57.171Z,0.70
2023-03-02T06:08:24.401Z,0.70
2023-03-02T06:10:54.925Z,0.70
2023-03-02T06:13:21.952Z,0.80
2023-03-02T06:15:49.100Z,0.80
2023-03-02T06:18:17.439Z,0.80
2023-03-02T06:20:45.168Z,0.80
2023-03-02T06:23:12.575Z,0.80
2023-03-02T06:25:43.725Z,0.80
2023-03-02T06:28:10.996Z,0.90
2023-03-02T06:30:38.222Z,0.90
2023-03-02T06:33:05.370Z,1.00
2023-03-02T06:35:33.844Z,1.00
2023-03-02T06:38:01.217Z,1.10
2023-03-02T06:40:28.279Z,1.10
2023-03-02T06:42:55.798Z,1.20
2023-03-02T06:45:26.136Z,1.10
2023-03-02T06:47:53.445Z,1.10
2023-03-02T06:50:23.149Z,1.10
2023-03-02T06:52:51.832Z,1.10
2023-03-02T06:55:18.859Z,1.20
2023-03-02T06:57:46.212Z,1.20
2023-03-02T07:00:17.192Z,1.20
2023-03-02T07:02:45.210Z,1.20
2023-03-02T07:05:12.594Z,1.30
2023-03-02T07:07:39.935Z,1.20
2023-03-02T07:10:07.725Z,1.30
2023-03-02T07:12:35.057Z,1.30
2023-03-02T07:15:02.171Z,1.30
2023-03-02T07:17:29.249Z,1.20
2023-03-02T07:19:56.616Z,1.20
2023-03-02T07:22:23.884Z,1.20
2023-03-02T07:24:54.269Z,1.30
2023-03-02T07:27:21.800Z,1.30
2023-03-02T07:29:49.005Z,1.30
2023-03-02T07:32:16.928Z,1.40
2023-03-02T07:34:44.292Z,1.40
2023-03-02T07:37:11.549Z,1.40
2023-03-02T07:39:47.384Z,1.50
2023-03-02T07:42:14.758Z,1.60
2023-03-02T07:44:44.985Z,1.70
2023-03-02T07:47:12.260Z,1.80
2023-03-02T07:49:40.263Z,2.00
2023-03-02T07:52:07.600Z,2.10
2023-03-02T07:54:34.954Z,2.20
2023-03-02T07:57:28.718Z,2.30
2023-03-02T07:59:59.426Z,2.40
2023-03-02T08:02:27.078Z,2.50
2023-03-02T08:04:54.367Z,2.50
2023-03-02T08:07:21.951Z,2.60
2023-03-02T08:09:49.072Z,2.70
2023-03-02T08:12:16.833Z,2.80
2023-03-02T08:14:46.327Z,2.90
2023-03-02T08:17:13.497Z,3.00
2023-03-02T08:19:40.770Z,3.10
2023-03-02T08:22:07.901Z,3.20
2023-03-02T08:24:35.200Z,3.20
2023-03-02T08:27:03.092Z,3.40
2023-03-02T08:29:30.559Z,3.50
2023-03-02T08:31:59.278Z,3.60
2023-03-02T08:35:13.066Z,3.70
2023-03-02T08:42:23.520Z,3.90
2023-03-02T09:02:49.032Z,4.40
2023-03-02T09:14:42.714Z,4.70
2023-03-02T09:17:20.147Z,4.70
2023-03-02T09:19:53.414Z,4.70
2023-03-02T09:23:37.426Z,4.80
2023-03-02T09:31:02.526Z,4.80
2023-03-02T09:35:50.286Z,4.80
2023-03-02T10:21:27.355Z,5.90
2023-03-02T11:41:28.218Z,7.60
2023-03-02T11:47:57.425Z,7.70
2023-03-02T12:27:33.943Z,7.80
2023-03-02T12:35:53.127Z,7.20
2023-03-02T12:40:02.653Z,7.10
2023-03-02T12:56:24.693Z,7.40
2023-03-02T12:59:04.823Z,7.50
2023-03-02T13:03:01.071Z,7.50
2023-03-02T13:05:46.168Z,7.50
2023-03-02T13:08:21.277Z,7.50
2023-03-02T13:11:12.087Z,7.50
2023-03-02T13:13:50.602Z,7.50
2023-03-02T13:16:28.073Z,7.50
2023-03-02T13:19:20.712Z,7.60
2023-03-02T13:21:57.974Z,7.60
2023-03-02T13:24:47.018Z,7.60
2023-03-02T13:31:18.017Z,7.70
2023-03-02T13:34:01.260Z,7.60
2023-03-02T13:36:41.278Z,7.80
2023-03-02T13:39:42.126Z,7.80
2023-03-02T13:46:15.109Z,7.90
2023-03-02T13:49:26.340Z,7.90
2023-03-02T13:52:07.074Z,8.00
2023-03-02T13:54:40.123Z,8.00
2023-03-02T13:58:26.735Z,8.10
2023-03-02T14:00:53.305Z,8.20
2023-03-02T14:04:21.640Z,8.20
2023-03-02T14:33:44.759Z,8.50
2023-03-02T16:29:42.039Z,7.90
2023-03-02T16:32:42.931Z,7.90
2023-03-02T16:36:22.922Z,7.90
2023-03-02T16:52:23.238Z,7.70
2023-03-02T16:54:53.155Z,7.70
2023-03-02T16:57:23.279Z,7.60
2023-03-02T16:59:52.284Z,7.60
2023-03-02T17:02:21.674Z,7.50
2023-03-02T17:04:48.895Z,7.50
2023-03-02T17:07:17.456Z,7.40
2023-03-02T17:09:44.653Z,7.40
2023-03-02T17:12:11.927Z,7.30
2023-03-02T17:14:39.133Z,7.20
2023-03-02T17:17:06.382Z,7.20
2023-03-02T17:19:33.535Z,7.10
2023-03-02T17:22:01.938Z,7.00
2023-03-02T17:24:29.552Z,7.00
2023-03-02T17:26:56.888Z,6.90
2023-03-02T17:29:24.203Z,6.90
2023-03-02T17:31:52.168Z,6.70
2023-03-02T17:34:21.632Z,6.70
2023-03-02T17:36:48.882Z,6.70
2023-03-02T17:39:16.066Z,6.60
2023-03-02T17:41:43.284Z,6.60
2023-03-02T17:44:13.642Z,6.50
2023-03-02T17:46:43.225Z,6.50
2023-03-02T17:49:10.485Z,6.40
2023-03-02T17:51:37.931Z,6.40
2023-03-02T17:54:07.290Z,6.30
2023-03-02T17:56:34.703Z,6.30
2023-03-02T17:59:02.643Z,6.20
2023-03-02T18:01:30.052Z,6.20
2023-03-02T18:03:57.437Z,6.10
2023-03-02T18:06:24.801Z,6.10
2023-03-02T18:08:52.178Z,6.00
2023-03-02T18:11:21.177Z,6.00
2023-03-02T18:13:48.592Z,5.90
2023-03-02T18:16:15.993Z,5.80
2023-03-02T18:18:43.184Z,5.70
2023-03-02T18:21:10.506Z,5.70
2023-03-02T18:23:37.595Z,5.70
2023-03-02T18:26:04.995Z,5.60
2023-03-02T18:28:32.311Z,5.60
2023-03-02T18:31:00.194Z,5.60
2023-03-02T18:33:27.415Z,5.60
2023-03-02T18:35:54.968Z,5.60
2023-03-02T18:38:22.261Z,5.60
2023-03-02T18:40:51.719Z,5.50
2023-03-02T18:43:18.850Z,5.50
2023-03-02T18:45:45.992Z,5.40
2023-03-02T18:48:15.889Z,5.30
2023-03-02T18:50:43.922Z,5.30
2023-03-02T18:53:12.859Z,5.30
2023-03-02T18:55:40.719Z,5.30
2023-03-02T18:58:09.456Z,5.20
2023-03-02T19:00:37.690Z,5.20
2023-03-02T19:03:05.040Z,5.10
2023-03-02T19:05:32.116Z,5.00
2023-03-02T19:08:00.357Z,5.00
2023-03-02T19:10:27.525Z,5.00
2023-03-02T19:12:57.008Z,5.00
2023-03-02T19:15:25.191Z,4.90
2023-03-02T19:17:53.196Z,4.90
2023-03-02T19:20:24.962Z,4.80
2023-03-02T19:22:52.579Z,4.80
2023-03-02T19:25:19.921Z,4.80
2023-03-02T19:27:46.968Z,4.80
2023-03-02T19:30:17.239Z,4.80
2023-03-02T19:32:44.499Z,4.70
2023-03-02T19:35:14.870Z,4.70
2023-03-02T19:37:42.082Z,4.60
2023-03-02T19:40:09.998Z,4.60
2023-03-02T19:42:39.493Z,4.50
2023-03-02T19:45:09.199Z,4.50
2023-03-02T19:47:36.398Z,4.50
2023-03-02T19:50:03.882Z,4.50
2023-03-02T19:52:31.574Z,4.50
2023-03-02T19:54:58.820Z,4.50
2023-03-02T19:57:26.040Z,4.40
2023-03-02T19:59:53.264Z,4.40
2023-03-02T20:02:21.052Z,4.30
2023-03-02T20:04:51.038Z,4.30
2023-03-02T20:07:22.542Z,4.30
2023-03-02T20:09:50.017Z,4.30
2023-03-02T20:12:17.221Z,4.20
2023-03-02T20:14:48.773Z,4.20
2023-03-02T20:17:16.679Z,4.20
2023-03-02T20:19:47.239Z,4.20
2023-03-02T20:22:14.315Z,4.20
2023-03-02T20:24:41.726Z,4.10
2023-03-02T20:27:09.500Z,4.10
2023-03-02T20:29:41.167Z,4.10
2023-03-02T20:32:09.218Z,4.10
2023-03-02T20:34:37.392Z,4.10
2023-03-02T20:37:08.687Z,4.10
2023-03-02T20:39:59.642Z,4.10
2023-03-02T20:42:27.714Z,4.10
2023-03-02T20:44:56.547Z,4.00
2023-03-02T20:47:26.203Z,3.90
2023-03-02T20:49:54.092Z,3.90
2023-03-02T20:52:22.243Z,3.90
2023-03-02T20:54:50.151Z,4.00
2023-03-02T20:57:18.477Z,4.10
2023-03-02T20:59:46.490Z,4.10
2023-03-02T21:02:14.488Z,4.10
2023-03-02T21:04:42.801Z,4.00
2023-03-02T21:07:10.309Z,4.10
2023-03-02T21:09:37.623Z,4.10
2023-03-02T21:12:05.025Z,4.20
2023-03-02T21:14:33.399Z,4.20
2023-03-02T21:17:00.960Z,4.20
2023-03-02T21:19:31.396Z,4.30
2023-03-02T21:21:58.685Z,4.30
2023-03-02T21:24:25.950Z,4.30
2023-03-02T21:26:53.557Z,4.30
2023-03-02T21:29:22.704Z,4.30
2023-03-02T21:31:50.949Z,4.30
2023-03-02T21:34:19.292Z,4.30
2023-03-02T21:36:46.977Z,4.30
2023-03-02T21:39:16.627Z,4.30
2023-03-02T21:41:43.855Z,4.30
2023-03-02T21:44:11.413Z,4.30
2023-03-02T21:46:38.791Z,4.40
2023-03-02T21:49:06.152Z,4.30
2023-03-02T21:51:33.617Z,4.30
2023-03-02T21:54:01.058Z,4.30
2023-03-02T21:56:28.329Z,4.40
2023-03-02T21:58:56.288Z,4.30
2023-03-02T22:01:23.896Z,4.40
2023-03-02T22:03:54.539Z,4.40
2023-03-02T22:06:25.460Z,4.40
2023-03-02T22:08:52.985Z,4.40
2023-03-02T22:11:24.926Z,4.40
2023-03-02T22:13:53.618Z,4.40
2023-03-02T22:16:22.344Z,4.40
2023-03-02T22:18:55.194Z,4.40
2023-03-02T22:21:25.410Z,4.40
2023-03-02T22:24:11.399Z,4.40
2023-03-02T22:27:17.300Z,4.40
2023-03-02T22:29:45.647Z,4.40
2023-03-02T22:32:25.706Z,4.40
2023-03-02T22:34:54.806Z,4.40
2023-03-02T22:37:23.217Z,4.40
2023-03-02T22:39:52.899Z,4.40
2023-03-02T22:42:25.146Z,4.40
2023-03-02T22:45:15.717Z,4.40
2023-03-02T22:47:49.563Z,4.40
2023-03-02T22:50:29.074Z,4.40
2023-03-02T22:52:58.057Z,4.40
2023-03-02T22:55:36.857Z,4.40
2023-03-02T22:58:35.342Z,4.40
2023-03-02T23:01:02.762Z,4.40
2023-03-02T23:03:38.657Z,4.40
2023-03-02T23:06:38.720Z,4.40
2023-03-02T23:09:06.493Z,4.40
2023-03-02T23:11:38.281Z,4.40
2023-03-02T23:14:20.213Z,4.40
2023-03-02T23:16:52.732Z,4.40
2023-03-02T23:19:20.638Z,4.40
2023-03-02T23:21:48.566Z,4.40
2023-03-02T23:24:42.784Z,4.40
2023-03-02T23:27:10.689Z,4.40
2023-03-02T23:29:38.238Z,4.40
2023-03-02T23:32:05.821Z,4.50
2023-03-02T23:34:33.099Z,4.50
2023-03-02T23:37:00.826Z,4.50
2023-03-02T23:39:28.008Z,4.50
2023-03-02T23:41:55.180Z,4.50
2023-03-02T23:44:22.492Z,4.50
2023-03-02T23:46:50.053Z,4.60
2023-03-02T23:49:17.354Z,4.60
2023-03-02T23:51:44.758Z,4.60
2023-03-02T23:54:12.076Z,4.60
2023-03-02T23:56:39.416Z,4.60
2023-03-02T23:59:06.717Z,4.60
